createdAt,value
2018-08-28T00:00:01.918Z,50.00
2018-08-28T00:01:06.388Z,49.90
2018-08-28T00:02:10.743Z,49.90
2018-08-28T00:03:15.128Z,50.00
2018-08-28T00:04:19.549Z,50.00
2018-08-28T00:05:23.940Z,50.00
2018-08-28T00:06:28.385Z,50.00
2018-08-28T00:07:34.012Z,50.00
2018-08-28T00:08:38.519Z,50.00
2018-08-28T00:09:42.997Z,50.00
2018-08-28T00:10:47.301Z,49.90
2018-08-28T00:11:51.758Z,49.90
2018-08-28T00:12:56.010Z,50.00
2018-08-28T00:14:00.331Z,50.00
2018-08-28T00:15:04.864Z,49.90
2018-08-28T00:16:09.332Z,50.00
2018-08-28T00:17:13.718Z,50.00
2018-08-28T00:18:18.162Z,50.00
2018-08-28T00:19:22.578Z,50.00
2018-08-28T00:20:26.836Z,49.90
2018-08-28T00:21:31.202Z,50.10
2018-08-28T00:22:35.598Z,50.00
2018-08-28T00:23:39.795Z,50.10
2018-08-28T00:24:44.157Z,50.10
2018-08-28T00:25:48.721Z,50.00
2018-08-28T00:26:53.149Z,50.10
2018-08-28T00:27:57.599Z,50.00
2018-08-28T00:29:02.008Z,49.90
2018-08-28T00:30:06.217Z,49.90
2018-08-28T00:31:10.625Z,49.90
2018-08-28T00:32:14.878Z,50.00
2018-08-28T00:33:19.551Z,50.00
2018-08-28T00:34:23.758Z,49.90
2018-08-28T00:35:28.094Z,50.00
2018-08-28T00:36:32.327Z,50.00
2018-08-28T00:37:37.134Z,50.00
2018-08-28T00:38:41.601Z,50.00
2018-08-28T00:39:45.836Z,49.90
2018-08-28T00:40:50.092Z,49.90
2018-08-28T00:41:54.861Z,50.00
2018-08-28T00:42:59.050Z,49.90
2018-08-28T00:44:03.302Z,50.00
2018-08-28T00:45:07.533Z,50.00
2018-08-28T00:46:11.704Z,50.00
2018-08-28T00:47:16.479Z,49.90
2018-08-28T00:48:20.750Z,49.90
2018-08-28T00:49:25.113Z,49.90
2018-08-28T00:50:29.382Z,49.90
2018-08-28T00:51:33.669Z,49.80
2018-08-28T00:52:38.559Z,49.90
2018-08-28T00:53:42.925Z,49.90
2018-08-28T00:54:47.421Z,49.90
2018-08-28T00:55:51.645Z,49.90
2018-08-28T00:56:55.909Z,50.50
2018-08-28T00:58:00.451Z,49.90
2018-08-28T00:59:04.649Z,49.90
2018-08-28T01:00:08.848Z,49.80
2018-08-28T01:01:13.031Z,50.00
2018-08-28T01:02:17.666Z,50.00
2018-08-28T01:03:22.154Z,50.00
2018-08-28T01:04:26.565Z,50.00
2018-08-28T01:05:31.043Z,50.00
2018-08-28T01:06:35.205Z,49.90
2018-08-28T01:07:39.593Z,50.00
2018-08-28T01:08:43.852Z,49.90
2018-08-28T01:09:48.078Z,49.90
2018-08-28T01:10:52.422Z,50.00
2018-08-28T01:11:56.657Z,49.90
2018-08-28T01:13:01.069Z,50.00
2018-08-28T01:14:05.288Z,50.00
2018-08-28T01:15:09.799Z,50.00
2018-08-28T01:16:14.222Z,50.00
2018-08-28T01:17:18.511Z,50.00
2018-08-28T01:18:22.863Z,50.00
2018-08-28T01:19:27.332Z,49.90
2018-08-28T01:20:31.696Z,50.00
2018-08-28T01:21:36.107Z,50.00
2018-08-28T01:22:40.600Z,49.90
2018-08-28T01:23:44.954Z,50.00
2018-08-28T01:24:49.436Z,49.90
2018-08-28T01:25:53.906Z,49.90
2018-08-28T01:26:58.470Z,49.90
2018-08-28T01:28:02.769Z,50.00
2018-08-28T01:29:07.043Z,49.90
2018-08-28T01:30:11.478Z,49.90
2018-08-28T01:31:15.788Z,49.90
2018-08-28T01:32:20.109Z,50.00
2018-08-28T01:33:24.334Z,50.10
2018-08-28T01:34:28.734Z,50.10
2018-08-28T01:35:33.188Z,50.00
2018-08-28T01:36:37.648Z,49.90
2018-08-28T01:37:41.885Z,50.00
2018-08-28T01:38:46.392Z,50.00
2018-08-28T01:39:50.596Z,50.00
2018-08-28T01:40:55.458Z,49.90
2018-08-28T01:41:59.885Z,49.90
2018-08-28T01:43:04.370Z,49.90
2018-08-28T01:44:08.616Z,50.00
2018-08-28T01:45:12.940Z,49.90
2018-08-28T01:46:17.183Z,50.00
2018-08-28T01:47:21.405Z,50.00
2018-08-28T01:48:26.179Z,50.00
2018-08-28T01:49:30.516Z,49.90
2018-08-28T01:50:34.726Z,50.00
2018-08-28T01:51:39.180Z,50.00
2018-08-28T01:52:43.396Z,49.90
2018-08-28T01:53:47.550Z,49.90
2018-08-28T01:54:51.711Z,50.10
2018-08-28T01:55:55.887Z,49.90
2018-08-28T01:57:00.190Z,49.90
2018-08-28T01:58:04.532Z,50.00
2018-08-28T01:59:08.938Z,49.90
2018-08-28T02:00:13.320Z,49.90
2018-08-28T02:01:17.843Z,49.90
2018-08-28T02:02:22.055Z,49.90
2018-08-28T02:03:26.472Z,50.00
2018-08-28T02:04:30.883Z,49.90
2018-08-28T02:05:35.250Z,49.90
2018-08-28T02:06:39.450Z,49.90
2018-08-28T02:07:44.116Z,49.90
2018-08-28T02:08:48.466Z,49.90
2018-08-28T02:09:52.640Z,49.90
2018-08-28T02:10:56.803Z,49.90
2018-08-28T02:12:01.135Z,49.90
2018-08-28T02:13:05.395Z,49.90
2018-08-28T02:14:09.958Z,49.90
2018-08-28T02:15:14.150Z,49.90
2018-08-28T02:16:18.399Z,49.90
2018-08-28T02:17:22.620Z,49.90
2018-08-28T02:18:27.048Z,49.90
2018-08-28T02:19:31.494Z,49.90
2018-08-28T02:20:35.856Z,49.90
2018-08-28T02:21:40.366Z,49.90
2018-08-28T02:22:44.523Z,49.90
2018-08-28T02:23:48.732Z,49.90
2018-08-28T02:24:53.120Z,49.90
2018-08-28T02:25:57.387Z,49.90
2018-08-28T02:27:01.600Z,49.90
2018-08-28T02:28:05.765Z,49.90
2018-08-28T02:29:10.193Z,49.90
2018-08-28T02:30:14.622Z,49.90
2018-08-28T02:31:19.203Z,49.90
2018-08-28T02:32:23.347Z,49.90
2018-08-28T02:33:27.757Z,49.90
2018-08-28T02:34:32.534Z,49.90
2018-08-28T02:35:36.925Z,49.90
2018-08-28T02:36:41.151Z,49.90
2018-08-28T02:37:45.551Z,49.90
2018-08-28T02:38:49.711Z,49.90
2018-08-28T02:39:53.883Z,49.90
2018-08-28T02:40:58.131Z,49.90
2018-08-28T02:42:02.424Z,49.90
2018-08-28T02:43:06.896Z,49.80
2018-08-28T02:44:11.137Z,49.80
2018-08-28T02:45:15.392Z,49.90
2018-08-28T02:46:19.629Z,49.80
2018-08-28T02:47:23.908Z,49.80
2018-08-28T02:48:28.230Z,49.80
2018-08-28T02:49:33.569Z,49.80
2018-08-28T02:50:37.758Z,49.90
2018-08-28T02:51:41.996Z,49.80
2018-08-28T02:52:46.380Z,49.80
2018-08-28T02:53:50.639Z,49.80
2018-08-28T02:54:55.011Z,50.00
2018-08-28T02:55:59.401Z,49.80
2018-08-28T02:57:03.777Z,49.80
2018-08-28T02:58:08.204Z,49.80
2018-08-28T02:59:12.370Z,49.80
2018-08-28T03:00:16.593Z,49.80
2018-08-28T03:01:20.793Z,50.50
2018-08-28T03:02:25.112Z,49.90
2018-08-28T03:03:29.406Z,49.80
2018-08-28T03:04:34.150Z,49.80
2018-08-28T03:05:38.346Z,49.80
2018-08-28T03:06:42.799Z,49.80
2018-08-28T03:07:47.296Z,49.80
2018-08-28T03:08:51.475Z,49.90
2018-08-28T03:09:55.913Z,49.80
2018-08-28T03:11:00.158Z,49.80
2018-08-28T03:12:04.608Z,49.80
2018-08-28T03:13:08.925Z,49.80
2018-08-28T03:14:13.308Z,49.90
2018-08-28T03:15:18.691Z,49.80
2018-08-28T03:16:23.572Z,49.90
2018-08-28T03:17:28.033Z,49.90
2018-08-28T03:18:32.259Z,49.80
2018-08-28T03:19:36.643Z,49.80
2018-08-28T03:20:40.781Z,49.90
2018-08-28T03:21:45.129Z,49.90
2018-08-28T03:22:50.575Z,49.90
2018-08-28T03:23:55.125Z,49.90
2018-08-28T03:24:59.668Z,49.90
2018-08-28T03:26:04.127Z,49.90
2018-08-28T03:27:08.562Z,49.90
2018-08-28T03:28:13.137Z,49.90
2018-08-28T03:29:17.556Z,49.90
2018-08-28T03:30:22.199Z,49.90
2018-08-28T03:31:26.564Z,49.90
2018-08-28T03:32:30.840Z,49.90
2018-08-28T03:33:35.292Z,49.90
2018-08-28T03:34:39.601Z,49.90
2018-08-28T03:35:43.814Z,49.90
2018-08-28T03:36:48.117Z,49.90
2018-08-28T03:37:52.398Z,49.90
2018-08-28T03:38:56.834Z,49.90
2018-08-28T03:40:01.188Z,49.90
2018-08-28T03:41:05.465Z,49.90
2018-08-28T03:42:09.890Z,49.90
2018-08-28T03:43:14.489Z,49.90
2018-08-28T03:44:18.915Z,49.90
2018-08-28T03:45:23.129Z,49.90
2018-08-28T03:46:27.430Z,49.90
2018-08-28T03:47:31.593Z,49.90
2018-08-28T03:48:35.927Z,49.90
2018-08-28T03:49:40.408Z,49.90
2018-08-28T03:50:44.616Z,49.90
2018-08-28T03:51:48.863Z,49.90
2018-08-28T03:52:53.296Z,50.00
2018-08-28T03:53:57.745Z,49.90
2018-08-28T03:55:02.524Z,49.90
2018-08-28T03:56:06.993Z,49.80
2018-08-28T03:57:11.301Z,49.90
2018-08-28T03:58:15.645Z,49.90
2018-08-28T03:59:19.913Z,49.90
2018-08-28T04:00:24.377Z,49.90
2018-08-28T04:01:28.613Z,50.00
2018-08-28T04:02:32.884Z,50.00
2018-08-28T04:03:37.198Z,50.00
2018-08-28T04:04:41.519Z,50.00
2018-08-28T04:05:45.705Z,50.00
2018-08-28T04:06:49.960Z,50.00
2018-08-28T04:07:54.444Z,50.00
2018-08-28T04:08:58.921Z,50.10
2018-08-28T04:10:03.144Z,50.00
2018-08-28T04:11:07.430Z,50.10
2018-08-28T04:12:11.847Z,50.10
2018-08-28T04:13:16.200Z,50.10
2018-08-28T04:14:20.656Z,50.10
2018-08-28T04:15:25.253Z,50.10
2018-08-28T04:16:30.557Z,50.10
2018-08-28T04:17:35.028Z,50.10
2018-08-28T04:18:39.214Z,50.10
2018-08-28T04:19:43.572Z,50.20
2018-08-28T04:20:47.943Z,50.20
2018-08-28T04:21:52.737Z,50.10
2018-08-28T04:22:56.964Z,50.10
2018-08-28T04:24:01.267Z,50.20
2018-08-28T04:25:05.513Z,50.10
2018-08-28T04:26:09.777Z,50.10
2018-08-28T04:27:13.970Z,50.10
2018-08-28T04:28:18.352Z,50.10
2018-08-28T04:29:23.123Z,50.10
2018-08-28T04:30:27.445Z,50.10
2018-08-28T04:31:31.812Z,50.10
2018-08-28T04:32:36.004Z,50.00
2018-08-28T04:33:40.353Z,50.10
2018-08-28T04:34:44.681Z,50.10
2018-08-28T04:35:49.120Z,50.20
2018-08-28T04:36:53.606Z,50.20
2018-08-28T04:37:57.901Z,50.20
2018-08-28T04:39:02.438Z,50.30
2018-08-28T04:40:08.113Z,50.30
2018-08-28T04:41:12.410Z,50.20
2018-08-28T04:42:16.722Z,50.20
2018-08-28T04:43:21.122Z,50.30
2018-08-28T04:44:25.578Z,50.30
2018-08-28T04:45:30.076Z,50.30
2018-08-28T04:46:34.492Z,50.30
2018-08-28T04:47:38.944Z,50.30
2018-08-28T04:48:43.198Z,50.30
2018-08-28T04:49:47.767Z,50.30
2018-08-28T04:50:52.172Z,50.30
2018-08-28T04:51:56.368Z,50.30
2018-08-28T04:53:00.540Z,50.30
2018-08-28T04:54:04.898Z,50.30
2018-08-28T04:55:09.103Z,50.30
2018-08-28T04:56:13.342Z,50.30
2018-08-28T04:57:17.593Z,50.30
2018-08-28T04:58:21.870Z,50.30
2018-08-28T04:59:26.107Z,50.30
2018-08-28T05:00:30.358Z,50.30
2018-08-28T05:01:34.980Z,50.30
2018-08-28T05:02:39.611Z,50.30
2018-08-28T05:03:44.107Z,50.40
2018-08-28T05:04:50.127Z,50.40
2018-08-28T05:05:54.587Z,50.40
2018-08-28T05:06:59.436Z,50.40
2018-08-28T05:08:03.770Z,50.40
2018-08-28T05:09:08.165Z,50.40
2018-08-28T05:10:12.496Z,50.40
2018-08-28T05:11:17.311Z,50.40
2018-08-28T05:12:21.690Z,50.30
2018-08-28T05:13:25.905Z,50.30
2018-08-28T05:14:30.876Z,50.30
2018-08-28T05:15:35.226Z,50.90
2018-08-28T05:16:39.578Z,50.20
2018-08-28T05:17:43.882Z,50.20
2018-08-28T05:18:48.175Z,50.20
2018-08-28T05:19:53.051Z,50.20
2018-08-28T05:20:57.378Z,50.40
2018-08-28T05:22:01.826Z,50.30
2018-08-28T05:23:06.260Z,50.30
2018-08-28T05:24:10.632Z,50.40
2018-08-28T05:25:14.986Z,50.40
2018-08-28T05:26:19.262Z,50.40
2018-08-28T05:27:23.951Z,50.50
2018-08-28T05:28:28.262Z,50.40
2018-08-28T05:29:32.865Z,50.40
2018-08-28T05:30:37.266Z,51.10
2018-08-28T05:31:41.656Z,50.50
2018-08-28T05:32:46.029Z,50.50
2018-08-28T05:33:50.373Z,50.80
2018-08-28T05:34:54.725Z,51.10
2018-08-28T05:35:59.334Z,50.50
2018-08-28T05:37:03.901Z,50.50
2018-08-28T05:38:08.204Z,50.50
2018-08-28T05:39:12.341Z,50.50
2018-08-28T05:40:16.550Z,50.50
2018-08-28T05:41:20.983Z,50.50
2018-08-28T05:42:25.401Z,50.50
2018-08-28T05:43:29.799Z,50.50
2018-08-28T05:44:34.173Z,50.60
2018-08-28T05:45:38.307Z,50.70
2018-08-28T05:46:42.723Z,50.70
2018-08-28T05:47:46.863Z,50.70
2018-08-28T05:48:51.916Z,50.70
2018-08-28T05:49:56.828Z,51.40
2018-08-28T05:51:01.268Z,50.70
2018-08-28T05:52:08.498Z,50.70
2018-08-28T05:53:13.253Z,50.70
2018-08-28T05:54:17.575Z,50.70
2018-08-28T05:55:22.088Z,50.70
2018-08-28T05:56:26.297Z,50.70
2018-08-28T05:57:30.809Z,50.70
2018-08-28T05:58:35.182Z,50.70
2018-08-28T05:59:39.469Z,50.60
2018-08-28T06:00:43.916Z,50.70
2018-08-28T06:01:48.154Z,50.70
2018-08-28T06:02:52.402Z,50.70
2018-08-28T06:03:56.670Z,50.70
2018-08-28T06:05:01.123Z,50.70
2018-08-28T06:06:05.622Z,50.80
2018-08-28T06:07:10.080Z,50.80
2018-08-28T06:08:15.292Z,50.80
2018-08-28T06:09:19.716Z,50.90
2018-08-28T06:10:23.959Z,50.80
2018-08-28T06:11:28.157Z,50.90
2018-08-28T06:12:32.609Z,50.90
2018-08-28T06:13:36.916Z,50.90
2018-08-28T06:14:41.325Z,50.90
2018-08-28T06:15:45.619Z,50.90
2018-08-28T06:16:50.660Z,50.80
2018-08-28T06:17:54.965Z,50.80
2018-08-28T06:18:59.361Z,50.90
2018-08-28T06:20:03.577Z,50.90
2018-08-28T06:21:08.189Z,50.90
2018-08-28T06:22:12.397Z,51.00
2018-08-28T06:23:16.572Z,51.10
2018-08-28T06:24:21.161Z,51.20
2018-08-28T06:25:25.618Z,51.20
2018-08-28T06:26:29.923Z,51.20
2018-08-28T06:27:34.053Z,51.20
2018-08-28T06:28:38.303Z,51.20
2018-08-28T06:29:42.694Z,51.20
2018-08-28T06:30:46.889Z,51.20
2018-08-28T06:31:51.389Z,51.10
2018-08-28T06:32:56.540Z,51.10
2018-08-28T06:34:01.651Z,51.10
2018-08-28T06:35:05.876Z,51.10
2018-08-28T06:36:10.511Z,51.10
2018-08-28T06:37:15.030Z,51.20
2018-08-28T06:38:19.472Z,51.10
2018-08-28T06:39:24.197Z,51.20
2018-08-28T06:40:28.581Z,51.20
2018-08-28T06:41:32.959Z,51.20
2018-08-28T06:42:37.189Z,51.20
2018-08-28T06:43:41.865Z,51.20
2018-08-28T06:44:46.280Z,51.10
2018-08-28T06:45:51.478Z,51.10
2018-08-28T06:46:57.323Z,51.20
2018-08-28T06:48:01.680Z,51.20
2018-08-28T06:49:05.888Z,51.20
2018-08-28T06:50:10.353Z,51.20
2018-08-28T06:51:14.508Z,51.30
2018-08-28T06:52:19.326Z,51.30
2018-08-28T06:53:23.782Z,51.30
2018-08-28T06:54:28.290Z,51.40
2018-08-28T06:55:32.630Z,51.30
2018-08-28T06:56:37.432Z,51.40
2018-08-28T06:57:41.864Z,51.40
2018-08-28T06:58:46.240Z,51.40
2018-08-28T06:59:50.604Z,51.50
2018-08-28T07:00:54.897Z,51.50
2018-08-28T07:01:59.369Z,51.50
2018-08-28T07:03:03.730Z,51.50
2018-08-28T07:04:07.946Z,51.40
2018-08-28T07:05:12.157Z,51.40
2018-08-28T07:06:17.107Z,51.40
2018-08-28T07:07:21.327Z,51.30
2018-08-28T07:08:25.767Z,51.40
2018-08-28T07:09:30.342Z,51.30
2018-08-28T07:10:35.094Z,51.40
2018-08-28T07:11:39.251Z,51.50
2018-08-28T07:12:43.469Z,51.50
2018-08-28T07:13:47.848Z,51.40
2018-08-28T07:14:52.172Z,51.40
2018-08-28T07:15:56.316Z,51.40
2018-08-28T07:17:00.579Z,51.40
2018-08-28T07:18:04.885Z,51.40
2018-08-28T07:19:09.545Z,51.30
2018-08-28T07:20:13.944Z,51.40
2018-08-28T07:21:18.209Z,51.40
2018-08-28T07:22:22.416Z,51.40
2018-08-28T07:23:26.734Z,51.40
2018-08-28T07:24:31.141Z,51.40
2018-08-28T07:25:35.377Z,51.30
2018-08-28T07:26:40.062Z,51.30
2018-08-28T07:27:44.606Z,51.30
2018-08-28T07:28:49.137Z,51.40
2018-08-28T07:29:53.431Z,51.40
2018-08-28T07:30:57.775Z,51.40
2018-08-28T07:32:02.601Z,51.40
2018-08-28T07:33:06.773Z,51.50
2018-08-28T07:34:11.940Z,51.50
2018-08-28T07:35:16.641Z,51.50
2018-08-28T07:36:20.939Z,51.50
2018-08-28T07:37:25.412Z,51.50
2018-08-28T07:38:29.814Z,51.50
2018-08-28T07:39:34.256Z,52.10
2018-08-28T07:40:38.863Z,51.50
2018-08-28T07:41:43.017Z,51.50
2018-08-28T07:42:47.499Z,51.50
2018-08-28T07:43:51.832Z,51.50
2018-08-28T07:44:56.030Z,51.50
2018-08-28T07:46:00.473Z,51.50
2018-08-28T07:47:04.954Z,51.60
2018-08-28T07:48:09.305Z,51.60
2018-08-28T07:49:13.700Z,51.60
2018-08-28T07:50:18.327Z,51.60
2018-08-28T07:51:22.697Z,51.60
2018-08-28T07:52:27.502Z,51.50
2018-08-28T07:53:31.982Z,51.50
2018-08-28T07:54:36.170Z,51.50
2018-08-28T07:55:40.390Z,51.50
2018-08-28T07:56:44.708Z,51.60
2018-08-28T07:57:49.361Z,51.60
2018-08-28T07:58:53.792Z,51.60
2018-08-28T07:59:59.232Z,51.60
2018-08-28T08:01:04.101Z,51.60
2018-08-28T08:02:09.093Z,51.60
2018-08-28T08:03:13.430Z,51.60
2018-08-28T08:04:17.615Z,51.60
2018-08-28T08:05:22.313Z,52.30
2018-08-28T08:05:34.856Z,51.70
2018-08-28T08:06:39.242Z,51.70
2018-08-28T08:07:44.092Z,51.70
2018-08-28T08:08:48.494Z,51.80
2018-08-28T08:09:54.037Z,51.70
2018-08-28T08:10:58.441Z,51.80
2018-08-28T08:12:02.944Z,51.80
2018-08-28T08:13:07.208Z,51.80
2018-08-28T08:14:11.714Z,51.80
2018-08-28T08:15:15.959Z,51.80
2018-08-28T08:16:20.204Z,51.80
2018-08-28T08:17:24.765Z,51.80
2018-08-28T08:18:30.061Z,51.80
2018-08-28T08:19:34.469Z,51.70
2018-08-28T08:20:38.865Z,51.70
2018-08-28T08:21:45.186Z,51.70
2018-08-28T08:22:49.528Z,51.70
2018-08-28T08:23:53.745Z,51.70
2018-08-28T08:24:57.927Z,51.60
2018-08-28T08:26:02.418Z,51.60
2018-08-28T08:27:06.563Z,51.60
2018-08-28T08:28:10.890Z,51.60
2018-08-28T08:29:14.960Z,51.60
2018-08-28T08:30:19.208Z,51.60
2018-08-28T08:31:23.551Z,51.60
2018-08-28T08:32:27.875Z,51.60
2018-08-28T08:33:32.229Z,51.60
2018-08-28T08:34:36.722Z,51.50
2018-08-28T08:35:40.999Z,51.50
2018-08-28T08:36:45.335Z,51.50
2018-08-28T08:37:49.947Z,51.50
2018-08-28T08:38:54.329Z,51.50
2018-08-28T08:39:58.740Z,51.50
2018-08-28T08:41:02.994Z,51.50
2018-08-28T08:42:07.546Z,51.50
2018-08-28T08:43:11.646Z,51.50
2018-08-28T08:44:16.324Z,51.60
2018-08-28T08:45:20.766Z,52.20
2018-08-28T08:46:24.979Z,51.50
2018-08-28T08:47:29.184Z,51.50
2018-08-28T08:48:33.960Z,51.50
2018-08-28T08:49:38.200Z,51.50
2018-08-28T08:50:42.579Z,51.50
2018-08-28T08:51:46.807Z,51.60
2018-08-28T08:52:51.209Z,51.50
2018-08-28T08:53:55.402Z,51.50
2018-08-28T08:54:59.830Z,51.50
2018-08-28T08:56:04.425Z,51.40
2018-08-28T08:57:08.858Z,51.50
2018-08-28T08:58:13.271Z,51.50
2018-08-28T08:59:17.534Z,51.50
2018-08-28T09:00:21.812Z,51.40
2018-08-28T09:01:26.484Z,51.50
2018-08-28T09:02:31.770Z,51.40
2018-08-28T09:03:36.129Z,51.50
2018-08-28T09:04:40.719Z,52.10
2018-08-28T09:05:45.012Z,51.50
2018-08-28T09:06:49.756Z,51.50
2018-08-28T09:07:54.056Z,51.40
2018-08-28T09:08:58.907Z,51.50
2018-08-28T09:10:03.573Z,51.60
2018-08-28T09:11:07.963Z,51.50
2018-08-28T09:12:12.134Z,51.50
2018-08-28T09:13:16.376Z,51.50
2018-08-28T09:14:20.709Z,51.50
2018-08-28T09:15:25.566Z,51.40
2018-08-28T09:16:29.946Z,51.50
2018-08-28T09:17:34.123Z,51.50
2018-08-28T09:18:38.671Z,51.40
2018-08-28T09:19:42.874Z,52.10
2018-08-28T09:20:47.704Z,51.40
2018-08-28T09:21:55.848Z,51.50
2018-08-28T09:23:00.363Z,51.40
2018-08-28T09:24:04.593Z,51.50
2018-08-28T09:25:08.984Z,51.50
2018-08-28T09:26:13.237Z,51.40
2018-08-28T09:27:17.417Z,51.40
2018-08-28T09:28:21.820Z,51.40
2018-08-28T09:29:26.294Z,51.40
2018-08-28T09:30:30.594Z,51.40
2018-08-28T09:31:34.807Z,51.40
2018-08-28T09:32:39.100Z,51.40
2018-08-28T09:33:43.806Z,51.40
2018-08-28T09:34:48.122Z,51.40
2018-08-28T09:35:52.865Z,51.40
2018-08-28T09:36:57.117Z,51.40
2018-08-28T09:38:01.294Z,51.50
2018-08-28T09:39:05.677Z,51.30
2018-08-28T09:40:10.102Z,51.30
2018-08-28T09:41:14.686Z,51.30
2018-08-28T09:42:18.860Z,51.30
2018-08-28T09:43:23.021Z,51.30
2018-08-28T09:44:27.353Z,51.20
2018-08-28T09:45:31.728Z,51.30
2018-08-28T09:46:36.207Z,51.30
2018-08-28T09:47:40.425Z,51.90
2018-08-28T09:48:44.721Z,51.10
2018-08-28T09:49:50.606Z,51.20
2018-08-28T09:50:54.841Z,51.20
2018-08-28T09:51:11.917Z,51.20
2018-08-28T09:52:16.246Z,51.10
2018-08-28T09:53:20.466Z,51.10
2018-08-28T09:54:25.118Z,51.70
2018-08-28T09:55:33.534Z,51.00
2018-08-28T09:56:37.922Z,51.10
2018-08-28T09:57:42.429Z,51.60
2018-08-28T09:58:46.909Z,51.00
2018-08-28T09:59:52.251Z,51.00
2018-08-28T10:00:56.712Z,50.90
2018-08-28T10:02:00.887Z,50.90
2018-08-28T10:03:05.149Z,50.90
2018-08-28T10:04:09.591Z,50.80
2018-08-28T10:05:13.899Z,50.80
2018-08-28T10:06:18.189Z,50.80
2018-08-28T10:07:22.630Z,50.70
2018-08-28T10:08:27.129Z,50.70
2018-08-28T10:09:31.381Z,50.70
2018-08-28T10:10:35.986Z,50.70
2018-08-28T10:11:40.600Z,50.70
2018-08-28T10:12:44.888Z,50.70
2018-08-28T10:13:49.173Z,50.70
2018-08-28T10:14:54.365Z,50.60
2018-08-28T10:15:58.763Z,50.70
2018-08-28T10:17:03.034Z,50.60
2018-08-28T10:18:07.272Z,50.60
2018-08-28T10:19:11.685Z,50.60
2018-08-28T10:20:16.039Z,50.60
2018-08-28T10:21:20.537Z,50.60
2018-08-28T10:22:24.701Z,50.60
2018-08-28T10:23:29.089Z,50.50
2018-08-28T10:24:34.332Z,50.50
2018-08-28T10:25:39.003Z,50.50
2018-08-28T10:26:43.583Z,50.50
2018-08-28T10:27:48.126Z,50.50
2018-08-28T10:28:52.297Z,50.50
2018-08-28T10:29:56.647Z,50.50
2018-08-28T10:31:00.771Z,50.50
2018-08-28T10:32:04.930Z,50.50
2018-08-28T10:33:09.125Z,50.40
2018-08-28T10:34:13.418Z,50.40
2018-08-28T10:35:17.960Z,50.40
2018-08-28T10:36:23.303Z,50.40
2018-08-28T10:37:27.775Z,50.30
2018-08-28T10:38:32.054Z,50.40
2018-08-28T10:39:36.264Z,50.30
2018-08-28T10:40:40.723Z,50.40
2018-08-28T10:41:45.079Z,50.20
2018-08-28T10:42:49.481Z,50.30
2018-08-28T10:43:53.855Z,50.40
2018-08-28T10:44:58.278Z,50.30
2018-08-28T10:46:02.883Z,50.30
2018-08-28T10:47:07.078Z,50.20
2018-08-28T10:48:11.774Z,50.10
2018-08-28T10:49:16.183Z,50.20
2018-08-28T10:50:20.721Z,50.10
2018-08-28T10:51:24.940Z,50.10
2018-08-28T10:52:29.121Z,50.10
2018-08-28T10:53:33.561Z,50.10
2018-08-28T10:54:37.745Z,50.00
2018-08-28T10:55:42.127Z,50.00
2018-08-28T10:56:46.405Z,50.00
2018-08-28T10:57:51.201Z,50.00
2018-08-28T10:58:55.642Z,50.00
2018-08-28T11:00:00.039Z,49.90
2018-08-28T11:01:04.229Z,50.00
2018-08-28T11:02:08.636Z,49.90
2018-08-28T11:03:12.967Z,49.90
2018-08-28T11:04:17.319Z,49.90
2018-08-28T11:05:21.635Z,49.90
2018-08-28T11:06:25.816Z,49.90
2018-08-28T11:07:30.122Z,49.80
2018-08-28T11:08:36.055Z,49.80
2018-08-28T11:09:40.390Z,49.80
2018-08-28T11:10:44.538Z,49.70
2018-08-28T11:11:48.774Z,49.70
2018-08-28T11:12:53.140Z,49.70
2018-08-28T11:13:57.526Z,49.60
2018-08-28T11:15:01.902Z,49.60
2018-08-28T11:16:06.433Z,49.60
2018-08-28T11:17:10.580Z,49.50
2018-08-28T11:18:15.129Z,49.50
2018-08-28T11:19:19.360Z,49.50
2018-08-28T11:20:24.355Z,49.50
2018-08-28T11:21:28.757Z,49.50
2018-08-28T11:22:33.135Z,49.50
2018-08-28T11:23:37.299Z,49.50
2018-08-28T11:24:41.467Z,49.40
2018-08-28T11:25:45.665Z,49.40
2018-08-28T11:26:49.861Z,49.40
2018-08-28T11:27:54.954Z,49.40
2018-08-28T11:28:59.262Z,49.40
2018-08-28T11:30:03.918Z,49.50
2018-08-28T11:31:08.440Z,49.40
2018-08-28T11:32:13.012Z,49.50
2018-08-28T11:33:17.386Z,49.40
2018-08-28T11:34:21.540Z,49.40
2018-08-28T11:35:25.760Z,49.40
2018-08-28T11:36:29.962Z,49.40
2018-08-28T11:37:34.336Z,49.40
2018-08-28T11:38:39.196Z,49.40
2018-08-28T11:39:43.511Z,49.40
2018-08-28T11:40:47.725Z,49.40
2018-08-28T11:41:52.206Z,49.40
2018-08-28T11:42:57.243Z,49.40
2018-08-28T11:44:01.519Z,49.30
2018-08-28T11:45:05.775Z,49.30
2018-08-28T11:46:09.977Z,49.30
2018-08-28T11:47:14.262Z,49.40
2018-08-28T11:48:18.693Z,49.40
2018-08-28T11:49:23.015Z,49.40
2018-08-28T11:50:27.573Z,49.30
2018-08-28T11:51:32.713Z,49.30
2018-08-28T11:52:37.307Z,49.30
2018-08-28T11:53:41.447Z,49.30
2018-08-28T11:54:46.182Z,49.20
2018-08-28T11:55:50.582Z,49.20
2018-08-28T11:56:54.733Z,49.20
2018-08-28T11:57:59.717Z,49.20
2018-08-28T11:59:04.056Z,49.20
2018-08-28T12:00:08.558Z,49.20
2018-08-28T12:01:12.874Z,49.20
2018-08-28T12:02:17.286Z,49.20
2018-08-28T12:03:21.563Z,49.20
2018-08-28T12:04:25.860Z,49.10
2018-08-28T12:05:30.770Z,49.20
2018-08-28T12:06:35.258Z,49.20
2018-08-28T12:07:39.804Z,49.20
2018-08-28T12:08:44.922Z,49.10
2018-08-28T12:09:49.160Z,49.20
2018-08-28T12:10:53.483Z,49.10
2018-08-28T12:11:57.784Z,49.20
2018-08-28T12:13:02.439Z,49.10
2018-08-28T12:14:06.903Z,49.20
2018-08-28T12:15:12.882Z,49.10
2018-08-28T12:16:17.888Z,49.10
2018-08-28T12:17:23.176Z,49.10
2018-08-28T12:18:28.259Z,49.10
2018-08-28T12:19:32.744Z,49.10
2018-08-28T12:20:37.058Z,49.00
2018-08-28T12:21:41.258Z,49.10
2018-08-28T12:22:45.633Z,49.00
2018-08-28T12:23:50.081Z,49.00
2018-08-28T12:24:54.265Z,49.00
2018-08-28T12:25:58.494Z,49.00
2018-08-28T12:27:02.793Z,49.00
2018-08-28T12:28:07.176Z,49.00
2018-08-28T12:29:11.712Z,49.00
2018-08-28T12:30:15.866Z,49.00
2018-08-28T12:31:20.227Z,49.00
2018-08-28T12:32:25.046Z,49.00
2018-08-28T12:33:29.425Z,48.90
2018-08-28T12:34:33.676Z,49.00
2018-08-28T12:35:38.101Z,48.90
2018-08-28T12:36:42.810Z,48.90
2018-08-28T12:37:47.536Z,48.90
2018-08-28T12:38:52.720Z,49.00
2018-08-28T12:39:57.148Z,48.90
2018-08-28T12:41:01.630Z,48.90
2018-08-28T12:42:06.214Z,48.90
2018-08-28T12:43:10.490Z,48.90
2018-08-28T12:44:14.959Z,48.90
2018-08-28T12:45:19.167Z,49.00
2018-08-28T12:46:23.638Z,49.00
2018-08-28T12:47:27.877Z,49.60
2018-08-28T12:48:32.145Z,49.00
2018-08-28T12:49:36.563Z,49.00
2018-08-28T12:50:40.895Z,48.90
2018-08-28T12:51:45.382Z,48.90
2018-08-28T12:52:49.795Z,48.90
2018-08-28T12:53:54.685Z,48.90
2018-08-28T12:54:59.036Z,48.90
2018-08-28T12:56:03.178Z,48.90
2018-08-28T12:57:07.426Z,48.90
2018-08-28T12:58:11.742Z,49.00
2018-08-28T12:59:15.939Z,48.80
2018-08-28T13:00:20.583Z,48.90
2018-08-28T13:01:24.733Z,48.80
2018-08-28T13:02:29.128Z,48.90
2018-08-28T13:03:34.973Z,48.80
2018-08-28T13:04:39.252Z,48.80
2018-08-28T13:05:43.630Z,48.80
2018-08-28T13:06:48.841Z,48.90
2018-08-28T13:07:53.688Z,48.80
2018-08-28T13:08:57.949Z,48.80
2018-08-28T13:10:02.157Z,48.80
2018-08-28T13:11:07.068Z,48.80
2018-08-28T13:12:11.642Z,48.80
2018-08-28T13:13:15.831Z,48.70
2018-08-28T13:14:20.032Z,48.70
2018-08-28T13:15:24.194Z,48.70
2018-08-28T13:16:28.414Z,48.70
2018-08-28T13:17:32.799Z,48.70
2018-08-28T13:18:37.001Z,48.70
2018-08-28T13:19:41.272Z,48.70
2018-08-28T13:20:45.482Z,49.00
2018-08-28T13:21:49.801Z,48.60
2018-08-28T13:22:54.140Z,48.60
2018-08-28T13:23:58.537Z,48.60
2018-08-28T13:25:02.940Z,48.60
2018-08-28T13:26:07.326Z,48.60
2018-08-28T13:27:11.549Z,48.60
2018-08-28T13:28:15.870Z,48.50
2018-08-28T13:29:20.259Z,48.50
2018-08-28T13:30:24.626Z,48.50
2018-08-28T13:31:28.980Z,48.40
2018-08-28T13:32:33.321Z,48.40
2018-08-28T13:33:37.465Z,48.50
2018-08-28T13:34:41.799Z,48.50
2018-08-28T13:35:46.174Z,48.40
2018-08-28T13:36:50.568Z,48.40
2018-08-28T13:37:54.768Z,48.40
2018-08-28T13:38:58.989Z,48.40
2018-08-28T13:40:03.376Z,48.40
2018-08-28T13:41:07.782Z,48.30
2018-08-28T13:42:12.098Z,48.40
2018-08-28T13:43:16.534Z,48.30
2018-08-28T13:44:20.730Z,48.30
2018-08-28T13:45:25.144Z,48.30
2018-08-28T13:46:29.372Z,48.20
2018-08-28T13:47:33.573Z,48.30